createdAt,value
2023-05-09T00:02:08.001Z,99110.78
2023-05-09T00:04:35.246Z,99126.13
2023-05-09T00:07:01.966Z,99116.88
2023-05-09T00:09:28.558Z,99120.38
2023-05-09T00:11:55.157Z,99116.63
2023-05-09T00:14:21.776Z,99116.16
2023-05-09T00:16:49.097Z,99116.88
2023-05-09T00:19:15.857Z,99109.00
2023-05-09T00:21:42.441Z,99107.13
2023-05-09T00:24:09.020Z,99104.34
2023-05-09T00:26:35.633Z,99098.69
2023-05-09T00:29:02.289Z,99099.97
2023-05-09T00:31:28.912Z,99099.84
2023-05-09T00:33:55.605Z,99099.09
2023-05-09T00:36:22.228Z,99097.56
2023-05-09T00:38:49.054Z,99092.13
2023-05-09T00:41:15.643Z,99095.81
2023-05-09T00:43:42.211Z,99088.31
2023-05-09T00:46:08.900Z,99084.72
2023-05-09T00:48:35.784Z,99079.09
2023-05-09T00:51:02.704Z,99081.41
2023-05-09T00:53:29.363Z,99080.03
2023-05-09T00:55:57.628Z,99068.34
2023-05-09T00:58:24.207Z,99073.06
2023-05-09T01:00:51.235Z,99076.25
2023-05-09T01:03:18.222Z,99077.25
2023-05-09T01:06:15.687Z,99073.66
2023-05-09T01:09:02.975Z,99062.38
2023-05-09T01:11:47.478Z,99058.00
2023-05-09T01:14:41.801Z,99065.47
2023-05-09T01:17:27.594Z,99059.69
2023-05-09T01:20:10.971Z,99060.47
2023-05-09T01:22:45.374Z,99063.47
2023-05-09T01:25:42.615Z,99059.47
2023-05-09T01:29:01.850Z,99054.75
2023-05-09T01:31:29.163Z,99054.16
2023-05-09T01:34:00.154Z,99041.16
2023-05-09T01:36:30.295Z,99043.09
2023-05-09T01:38:58.194Z,99045.47
2023-05-09T01:41:29.097Z,99047.41
2023-05-09T01:43:58.993Z,99050.28
2023-05-09T01:46:27.084Z,99040.22
2023-05-09T01:48:55.673Z,99039.13
2023-05-09T01:51:23.740Z,99045.16
2023-05-09T01:53:52.774Z,99043.63
2023-05-09T01:56:22.464Z,99043.22
2023-05-09T01:58:51.109Z,99044.31
2023-05-09T02:01:19.021Z,99043.91
2023-05-09T02:03:50.493Z,99041.56
2023-05-09T02:06:23.295Z,99032.91
2023-05-09T02:08:50.862Z,99038.69
2023-05-09T02:11:17.523Z,99037.97
2023-05-09T02:13:44.107Z,99028.34
2023-05-09T02:16:12.093Z,99022.69
2023-05-09T02:18:38.811Z,99015.81
2023-05-09T02:21:06.425Z,99010.75
2023-05-09T02:23:33.172Z,99013.44
2023-05-09T02:26:00.541Z,99024.66
2023-05-09T02:28:29.170Z,99017.41
2023-05-09T02:30:58.694Z,99018.22
2023-05-09T02:33:27.094Z,99013.31
2023-05-09T02:35:54.281Z,99007.78
2023-05-09T02:38:21.526Z,99007.72
2023-05-09T02:40:50.929Z,99012.09
2023-05-09T02:43:19.640Z,99010.31
2023-05-09T02:45:46.237Z,99012.50
2023-05-09T02:48:12.893Z,98995.78
2023-05-09T02:50:42.802Z,98995.63
2023-05-09T02:53:09.651Z,98992.44
2023-05-09T02:55:36.223Z,98978.78
2023-05-09T02:58:13.672Z,98981.94
2023-05-09T03:00:41.854Z,98983.09
2023-05-09T03:03:09.202Z,98980.25
2023-05-09T03:05:35.853Z,98980.38
2023-05-09T03:08:02.434Z,98986.75
2023-05-09T03:10:29.071Z,98987.13
2023-05-09T03:12:55.753Z,98986.53
2023-05-09T03:15:22.635Z,98984.75
2023-05-09T03:17:49.311Z,98987.28
2023-05-09T03:20:16.142Z,98989.69
2023-05-09T03:22:42.988Z,98985.41
2023-05-09T03:25:10.123Z,98985.09
2023-05-09T03:27:36.717Z,98984.66
2023-05-09T03:30:03.637Z,98977.91
2023-05-09T03:32:30.383Z,98977.44
2023-05-09T03:34:57.234Z,98975.63
2023-05-09T03:37:25.538Z,98979.50
2023-05-09T03:39:53.740Z,98971.31
2023-05-09T03:42:20.349Z,98974.75
2023-05-09T03:44:47.325Z,98974.69
2023-05-09T03:47:13.878Z,98970.94
2023-05-09T03:49:41.495Z,98973.78
2023-05-09T03:52:13.227Z,98968.31
2023-05-09T03:54:39.879Z,98967.50
2023-05-09T03:57:07.585Z,98968.97
2023-05-09T03:59:34.182Z,98970.63
2023-05-09T04:02:00.897Z,98966.00
2023-05-09T04:04:27.635Z,98959.47
2023-05-09T04:06:54.255Z,98948.94
2023-05-09T04:09:20.913Z,98957.91
2023-05-09T04:11:47.475Z,98947.81
2023-05-09T04:14:14.209Z,98945.72
2023-05-09T04:16:40.873Z,98946.06
2023-05-09T04:19:07.598Z,98953.94
2023-05-09T04:21:34.257Z,98958.16
2023-05-09T04:24:01.161Z,98946.91
2023-05-09T04:26:28.081Z,98942.88
2023-05-09T04:28:54.711Z,98950.53
2023-05-09T04:31:21.474Z,98942.81
2023-05-09T04:33:48.240Z,98941.91
2023-05-09T04:36:14.828Z,98943.59
2023-05-09T04:38:41.464Z,98948.41
2023-05-09T04:41:08.067Z,98946.50
2023-05-09T04:43:34.623Z,98945.66
2023-05-09T04:46:03.218Z,98949.84
2023-05-09T04:48:29.813Z,98944.66
2023-05-09T04:50:56.388Z,98944.59
2023-05-09T04:53:23.138Z,98934.34
2023-05-09T04:55:49.692Z,98930.41
2023-05-09T04:58:16.324Z,98922.09
2023-05-09T05:00:42.903Z,98933.16
2023-05-09T05:03:09.697Z,98925.47
2023-05-09T05:05:37.433Z,98918.78
2023-05-09T05:08:04.657Z,98917.66
2023-05-09T05:10:31.304Z,98913.34
2023-05-09T05:12:57.953Z,98918.69
2023-05-09T05:15:24.646Z,98920.75
2023-05-09T05:17:51.353Z,98910.69
2023-05-09T05:20:18.481Z,98916.03
2023-05-09T05:22:45.168Z,98913.56
2023-05-09T05:25:12.073Z,98911.31
2023-05-09T05:27:38.739Z,98908.84
2023-05-09T05:30:07.479Z,98907.13
2023-05-09T05:32:34.065Z,98904.97
2023-05-09T05:35:02.426Z,98905.88
2023-05-09T05:37:29.084Z,98911.13
2023-05-09T05:39:55.694Z,98903.75
2023-05-09T05:42:22.412Z,98908.75
2023-05-09T05:44:48.964Z,98899.13
2023-05-09T05:47:15.554Z,98900.78
2023-05-09T05:49:42.532Z,98898.66
2023-05-09T05:52:09.173Z,98898.06
2023-05-09T05:54:35.749Z,98897.38
2023-05-09T05:57:02.433Z,98900.25
2023-05-09T05:59:29.046Z,98887.81
2023-05-09T06:01:56.114Z,98899.31
2023-05-09T06:04:22.760Z,98905.25
2023-05-09T06:06:49.437Z,98895.72
2023-05-09T06:09:16.099Z,98902.25
2023-05-09T06:11:42.757Z,98900.69
2023-05-09T06:14:09.302Z,98898.50
2023-05-09T06:16:36.369Z,98898.47
2023-05-09T06:19:03.027Z,98891.19
2023-05-09T06:21:30.046Z,98894.31
2023-05-09T06:26:26.159Z,98893.69
2023-05-09T06:28:52.712Z,98887.84
2023-05-09T06:31:19.397Z,98888.88
2023-05-09T06:33:46.389Z,98887.06
2023-05-09T06:36:13.010Z,98881.66
2023-05-09T06:38:39.591Z,98868.69
2023-05-09T06:41:06.162Z,98874.63
2023-05-09T06:43:32.862Z,98869.31
2023-05-09T06:45:59.514Z,98871.44
2023-05-09T06:48:26.730Z,98868.75
2023-05-09T06:50:53.374Z,98859.84
2023-05-09T06:53:20.046Z,98865.19
2023-05-09T06:55:47.372Z,98855.75
2023-05-09T06:58:14.620Z,98857.53
2023-05-09T07:00:41.235Z,98856.44
2023-05-09T07:03:07.873Z,98854.59
2023-05-09T07:05:34.695Z,98849.72
2023-05-09T07:08:01.538Z,98857.84
2023-05-09T07:10:28.245Z,98856.69
2023-05-09T07:12:54.967Z,98849.72
2023-05-09T07:15:36.702Z,98842.06
2023-05-09T07:18:08.044Z,98839.47
2023-05-09T07:20:34.740Z,98839.78
2023-05-09T07:23:03.812Z,98837.47
2023-05-09T07:25:30.678Z,98835.06
2023-05-09T07:27:57.664Z,98836.31
2023-05-09T07:30:24.851Z,98830.66
2023-05-09T07:32:51.914Z,98827.91
2023-05-09T07:35:19.861Z,98820.03
2023-05-09T07:37:46.608Z,98818.75
2023-05-09T07:40:14.148Z,98819.97
2023-05-09T07:42:41.001Z,98819.44
2023-05-09T07:45:08.170Z,98813.66
2023-05-09T07:47:34.896Z,98806.03
2023-05-09T07:50:01.616Z,98802.13
2023-05-09T07:52:28.293Z,98813.56
2023-05-09T07:54:54.907Z,98808.97
2023-05-09T07:57:22.357Z,98796.34
2023-05-09T07:59:49.009Z,98790.97
2023-05-09T08:02:15.666Z,98782.06
2023-05-09T08:04:43.860Z,98787.09
2023-05-09T08:07:11.699Z,98785.28
2023-05-09T08:09:38.283Z,98793.38
2023-05-09T08:12:05.976Z,98781.47
2023-05-09T08:14:32.700Z,98778.13
2023-05-09T08:16:59.322Z,98779.28
2023-05-09T08:19:26.271Z,98778.31
2023-05-09T08:21:53.315Z,98759.09
2023-05-09T08:24:20.130Z,98763.66
2023-05-09T08:26:46.985Z,98759.59
2023-05-09T08:29:13.751Z,98753.16
2023-05-09T08:31:40.903Z,98756.09
2023-05-09T08:34:07.677Z,98745.34
2023-05-09T08:36:34.343Z,98747.59
2023-05-09T08:39:01.412Z,98747.19
2023-05-09T08:41:28.172Z,98748.44
2023-05-09T08:43:55.726Z,98749.53
2023-05-09T08:46:36.283Z,98740.03
2023-05-09T08:49:06.919Z,98742.25
2023-05-09T08:51:35.037Z,98729.94
2023-05-09T08:54:02.389Z,98725.78
2023-05-09T08:56:31.080Z,98725.44
2023-05-09T08:58:58.918Z,98728.19
2023-05-09T09:01:26.749Z,98729.69
2023-05-09T09:03:53.997Z,98728.47
2023-05-09T09:06:23.202Z,98728.31
2023-05-09T09:08:50.790Z,98718.84
2023-05-09T09:11:18.451Z,98722.78
2023-05-09T09:13:46.870Z,98709.66
2023-05-09T09:16:22.136Z,98707.94
2023-05-09T09:18:52.334Z,98704.28
2023-05-09T09:21:20.790Z,98710.06
2023-05-09T09:23:49.107Z,98706.38
2023-05-09T09:26:16.420Z,98706.41
2023-05-09T09:28:43.220Z,98711.50
2023-05-09T09:31:30.338Z,98704.94
2023-05-09T09:34:01.954Z,98707.19
2023-05-09T09:36:30.415Z,98698.50
2023-05-09T09:39:00.435Z,98693.63
2023-05-09T09:41:53.758Z,98689.56
2023-05-09T09:44:22.371Z,98689.31
2023-05-09T09:46:54.895Z,98697.81
2023-05-09T09:49:26.733Z,98691.34
2023-05-09T09:51:58.631Z,98687.28
2023-05-09T09:54:28.901Z,98679.47
2023-05-09T09:56:56.417Z,98671.25
2023-05-09T09:59:27.209Z,98678.13
2023-05-09T10:02:08.430Z,98671.94
2023-05-09T10:04:38.863Z,98674.78
2023-05-09T10:07:08.301Z,98662.94
2023-05-09T10:09:38.890Z,98667.97
2023-05-09T10:12:08.392Z,98656.31
2023-05-09T10:14:37.615Z,98654.16
2023-05-09T10:17:05.748Z,98656.03
2023-05-09T10:19:37.997Z,98646.22
2023-05-09T10:22:16.393Z,98643.19
2023-05-09T10:25:02.388Z,98648.78
2023-05-09T10:27:38.254Z,98639.84
2023-05-09T10:30:19.858Z,98634.63
2023-05-09T10:33:13.021Z,98624.19
2023-05-09T10:35:51.873Z,98620.41
2023-05-09T10:38:24.510Z,98619.06
2023-05-09T10:40:54.187Z,98610.28
2023-05-09T10:43:25.878Z,98610.41
2023-05-09T10:45:54.151Z,98617.97
2023-05-09T10:48:22.845Z,98609.81
2023-05-09T10:50:50.197Z,98607.81
2023-05-09T10:53:18.247Z,98600.75
2023-05-09T10:56:00.218Z,98599.44
2023-05-09T10:58:36.186Z,98598.53
2023-05-09T11:01:04.820Z,98598.91
2023-05-09T11:04:01.819Z,98592.59
2023-05-09T11:06:50.666Z,98595.59
2023-05-09T11:09:35.648Z,98592.81
2023-05-09T11:12:05.323Z,98583.53
2023-05-09T11:14:47.375Z,98591.09
2023-05-09T11:17:16.667Z,98590.41
2023-05-09T11:19:46.052Z,98579.84
2023-05-09T11:22:26.110Z,98578.66
2023-05-09T11:25:07.389Z,98574.00
2023-05-09T11:27:51.852Z,98563.63
2023-05-09T11:30:20.491Z,98569.00
2023-05-09T11:32:55.359Z,98562.16
2023-05-09T11:35:23.916Z,98551.41
2023-05-09T11:38:00.287Z,98554.31
2023-05-09T11:40:28.626Z,98541.13
2023-05-09T11:42:58.571Z,98542.03
2023-05-09T11:45:31.428Z,98543.28
2023-05-09T11:47:58.919Z,98537.03
2023-05-09T11:50:25.855Z,98533.53
2023-05-09T11:52:53.818Z,98521.09
2023-05-09T11:55:22.490Z,98521.09
2023-05-09T11:57:52.141Z,98523.28
2023-05-09T12:00:24.181Z,98517.19
2023-05-09T12:02:52.586Z,98520.59
2023-05-09T12:05:21.827Z,98514.19
2023-05-09T12:07:49.052Z,98509.13
2023-05-09T12:10:20.197Z,98498.91
2023-05-09T12:12:49.834Z,98497.50
2023-05-09T12:15:17.531Z,98490.88
2023-05-09T12:17:47.258Z,98498.53
2023-05-09T12:20:15.699Z,98494.31
2023-05-09T12:22:52.822Z,98499.09
2023-05-09T12:25:19.637Z,98488.88
2023-05-09T12:27:46.627Z,98488.56
2023-05-09T12:30:15.954Z,98494.72
2023-05-09T12:32:43.475Z,98484.78
2023-05-09T12:35:10.424Z,98492.66
2023-05-09T12:37:37.564Z,98481.91
2023-05-09T12:40:18.520Z,98487.09
2023-05-09T12:42:45.968Z,98470.19
2023-05-09T12:45:13.252Z,98471.19
2023-05-09T12:47:41.683Z,98460.47
2023-05-09T12:50:12.149Z,98463.13
2023-05-09T12:53:02.190Z,98449.13
2023-05-09T12:55:31.542Z,98450.34
2023-05-09T12:57:59.929Z,98437.66
2023-05-09T13:00:26.801Z,98437.53
2023-05-09T13:02:53.881Z,98433.19
2023-05-09T13:05:23.054Z,98433.78
2023-05-09T13:07:54.822Z,98431.19
2023-05-09T13:10:28.747Z,98430.09
2023-05-09T13:12:55.537Z,98418.34
2023-05-09T13:15:23.474Z,98411.63
2023-05-09T13:17:51.955Z,98412.63
2023-05-09T13:20:19.682Z,98404.28
2023-05-09T13:22:46.766Z,98407.38
2023-05-09T13:25:13.570Z,98404.19
2023-05-09T13:27:40.301Z,98393.69
2023-05-09T13:30:08.334Z,98390.16
2023-05-09T13:32:36.318Z,98383.03
2023-05-09T13:35:04.435Z,98381.28
2023-05-09T13:37:31.020Z,98379.25
2023-05-09T13:39:57.745Z,98375.47
2023-05-09T13:42:24.859Z,98368.50
2023-05-09T13:44:51.526Z,98366.41
2023-05-09T13:47:18.374Z,98363.84
2023-05-09T13:49:44.970Z,98354.31
2023-05-09T13:52:11.955Z,98355.75
2023-05-09T13:54:38.743Z,98351.66
2023-05-09T13:57:06.192Z,98343.69
2023-05-09T13:59:32.849Z,98345.63
2023-05-09T14:02:01.286Z,98344.75
2023-05-09T14:04:29.767Z,98344.13
2023-05-09T14:06:56.553Z,98338.22
2023-05-09T14:09:23.252Z,98332.94
2023-05-09T14:11:51.442Z,98319.75
2023-05-09T14:14:19.107Z,98318.97
2023-05-09T14:16:46.506Z,98319.91
2023-05-09T14:19:15.105Z,98315.78
2023-05-09T14:21:42.902Z,98310.56
2023-05-09T14:24:14.245Z,98306.78
2023-05-09T14:26:42.406Z,98300.50
2023-05-09T14:29:09.246Z,98296.97
2023-05-09T14:31:35.960Z,98292.31
2023-05-09T14:34:04.542Z,98284.69
2023-05-09T14:36:32.385Z,98277.72
2023-05-09T14:38:59.008Z,98277.06
2023-05-09T14:41:25.863Z,98274.72
2023-05-09T14:43:52.498Z,98268.84
2023-05-09T14:46:19.225Z,98263.53
2023-05-09T14:48:45.901Z,98260.31
2023-05-09T14:51:12.727Z,98264.16
2023-05-09T14:53:41.515Z,98251.03
2023-05-09T14:56:09.356Z,98249.19
2023-05-09T14:58:36.166Z,98239.44
2023-05-09T15:01:04.260Z,98232.75
2023-05-09T15:03:31.244Z,98240.28
2023-05-09T15:05:58.641Z,98229.78
2023-05-09T15:08:25.856Z,98242.78
2023-05-09T15:10:52.792Z,98218.41
2023-05-09T15:13:19.628Z,98219.56
2023-05-09T15:15:46.284Z,98226.03
2023-05-09T15:18:15.401Z,98227.69
2023-05-09T15:20:43.037Z,98227.22
2023-05-09T15:23:10.553Z,98225.19
2023-05-09T15:25:37.270Z,98220.34
2023-05-09T15:28:04.231Z,98219.00
2023-05-09T15:30:30.803Z,98212.47
2023-05-09T15:32:57.458Z,98207.97
2023-05-09T15:35:24.173Z,98203.81
2023-05-09T15:37:50.792Z,98204.69
2023-05-09T15:40:17.598Z,98199.63
2023-05-09T15:42:44.322Z,98197.03
2023-05-09T15:45:11.286Z,98188.47
2023-05-09T15:47:37.997Z,98197.75
2023-05-09T15:50:05.190Z,98194.47
2023-05-09T15:52:31.879Z,98188.41
2023-05-09T15:54:59.761Z,98183.72
2023-05-09T15:57:26.624Z,98176.56
2023-05-09T15:59:55.090Z,98179.75
2023-05-09T16:02:22.602Z,98177.03
2023-05-09T16:04:49.312Z,98178.44
2023-05-09T16:07:16.091Z,98174.81
2023-05-09T16:09:43.419Z,98176.44
2023-05-09T16:12:10.204Z,98174.09
2023-05-09T16:14:45.624Z,98173.75
2023-05-09T16:17:12.411Z,98172.84
2023-05-09T16:19:39.044Z,98179.66
2023-05-09T16:22:05.636Z,98174.50
2023-05-09T16:24:32.206Z,98177.09
2023-05-09T16:26:58.854Z,98178.34
2023-05-09T16:29:27.186Z,98173.47
2023-05-09T16:31:53.814Z,98173.69
2023-05-09T16:34:20.831Z,98167.38
2023-05-09T16:36:47.701Z,98162.16
2023-05-09T16:39:14.404Z,98157.84
2023-05-09T16:41:41.013Z,98149.31
2023-05-09T16:44:07.601Z,98139.84
2023-05-09T16:46:34.184Z,98141.78
2023-05-09T16:49:00.836Z,98131.84
2023-05-09T16:51:27.728Z,98129.81
2023-05-09T16:53:54.312Z,98120.72
2023-05-09T16:56:21.480Z,98112.47
2023-05-09T16:58:49.227Z,98111.75
2023-05-09T17:01:16.044Z,98104.13
2023-05-09T17:03:42.679Z,98100.31
2023-05-09T17:06:10.223Z,98085.31
2023-05-09T17:08:39.220Z,98088.34
2023-05-09T17:11:05.964Z,98089.72
2023-05-09T17:13:32.621Z,98088.59
2023-05-09T17:15:59.289Z,98092.75
2023-05-09T17:18:36.746Z,98079.09
2023-05-09T17:21:04.943Z,98077.63
2023-05-09T17:23:31.739Z,98075.00
2023-05-09T17:25:58.476Z,98093.13
2023-05-09T17:28:25.194Z,98106.38
2023-05-09T17:30:51.786Z,98099.75
2023-05-09T17:33:19.120Z,98107.09
2023-05-09T17:35:49.263Z,98121.97
2023-05-09T17:38:16.365Z,98127.38
2023-05-09T17:40:44.127Z,98116.63
2023-05-09T17:43:11.554Z,98111.91
2023-05-09T17:45:38.749Z,98100.47
2023-05-09T17:48:06.727Z,98104.88
2023-05-09T17:50:33.574Z,98109.97
2023-05-09T17:53:00.343Z,98110.88
2023-05-09T17:55:27.033Z,98117.06
2023-05-09T17:57:53.614Z,98119.88
2023-05-09T18:00:20.417Z,98111.00
2023-05-09T18:02:47.991Z,98102.28
2023-05-09T18:05:14.857Z,98096.75
2023-05-09T18:07:41.447Z,98094.38
2023-05-09T18:10:09.175Z,98091.19
2023-05-09T18:12:37.418Z,98089.28
2023-05-09T18:15:05.196Z,98090.66
2023-05-09T18:17:31.913Z,98089.59
2023-05-09T18:19:58.650Z,98084.94
2023-05-09T18:22:25.483Z,98085.69
2023-05-09T18:24:52.785Z,98078.91
2023-05-09T18:27:19.390Z,98073.44
2023-05-09T18:29:47.363Z,98079.28
2023-05-09T18:32:14.319Z,98084.44
2023-05-09T18:34:41.647Z,98083.78
2023-05-09T18:37:10.292Z,98093.34
2023-05-09T18:39:37.241Z,98096.44
2023-05-09T18:42:06.089Z,98105.13
2023-05-09T18:44:32.757Z,98100.16
2023-05-09T18:46:59.440Z,98113.63
2023-05-09T18:49:26.698Z,98121.38
2023-05-09T18:51:53.373Z,98123.19
2023-05-09T18:54:20.065Z,98129.38
2023-05-09T18:56:46.744Z,98139.09
2023-05-09T18:59:16.095Z,98131.34
2023-05-09T19:01:43.917Z,98124.34
2023-05-09T19:04:10.754Z,98115.00
2023-05-09T19:06:37.562Z,98116.75
2023-05-09T19:09:04.339Z,98105.31
2023-05-09T19:11:31.048Z,98114.19
2023-05-09T19:13:57.737Z,98115.06
2023-05-09T19:16:26.299Z,98117.47
2023-05-09T19:18:57.137Z,98126.50
2023-05-09T19:21:24.266Z,98113.06
2023-05-09T19:23:51.195Z,98104.22
2023-05-09T19:26:19.451Z,98108.97
2023-05-09T19:28:46.931Z,98105.50
2023-05-09T19:31:15.169Z,98103.81
2023-05-09T19:33:45.252Z,98102.16
2023-05-09T19:36:12.092Z,98104.00
2023-05-09T19:38:39.084Z,98102.53
2023-05-09T19:41:05.754Z,98105.13
2023-05-09T19:43:33.394Z,98101.44
2023-05-09T19:46:00.136Z,98102.44
2023-05-09T19:48:26.848Z,98101.34
2023-05-09T19:50:58.413Z,98094.22
2023-05-09T19:53:25.526Z,98094.22
2023-05-09T19:55:52.627Z,98105.66
2023-05-09T19:58:19.878Z,98100.88
2023-05-09T20:00:46.865Z,98098.00
2023-05-09T20:03:14.681Z,98093.06
2023-05-09T20:05:41.393Z,98098.50
2023-05-09T20:08:07.984Z,98097.44
2023-05-09T20:10:34.765Z,98091.94
2023-05-09T20:13:02.428Z,98095.09
2023-05-09T20:15:29.601Z,98093.19
2023-05-09T20:17:56.358Z,98099.13
2023-05-09T20:20:23.251Z,98092.94
2023-05-09T20:22:51.276Z,98093.03
2023-05-09T20:25:20.226Z,98083.69
2023-05-09T20:27:46.811Z,98079.06
2023-05-09T20:30:13.986Z,98083.13
2023-05-09T20:32:41.152Z,98086.44
2023-05-09T20:35:08.372Z,98085.31
2023-05-09T20:37:35.968Z,98075.19
2023-05-09T20:40:06.395Z,98085.59
2023-05-09T20:42:33.365Z,98092.44
2023-05-09T20:44:59.936Z,98087.28
2023-05-09T20:47:29.051Z,98081.47
2023-05-09T20:49:57.622Z,98083.56
2023-05-09T20:52:25.307Z,98070.50
2023-05-09T20:54:51.917Z,98064.88
2023-05-09T20:57:18.673Z,98064.50
2023-05-09T20:59:45.437Z,98064.13
2023-05-09T21:02:12.150Z,98064.13
2023-05-09T21:04:38.745Z,98058.72
2023-05-09T21:07:05.470Z,98055.28
2023-05-09T21:09:32.134Z,98065.53
2023-05-09T21:12:00.508Z,98054.88
2023-05-09T21:14:27.064Z,98045.59
2023-05-09T21:16:54.963Z,98060.81
2023-05-09T21:19:21.704Z,98051.13
2023-05-09T21:21:48.306Z,98047.16
2023-05-09T21:24:14.982Z,98051.19
2023-05-09T21:26:41.710Z,98045.31
2023-05-09T21:29:08.966Z,98045.31
2023-05-09T21:31:35.910Z,98041.97
2023-05-09T21:34:02.671Z,98032.03
2023-05-09T21:36:29.404Z,98039.47
2023-05-09T21:38:56.104Z,98038.59
2023-05-09T21:41:24.611Z,98040.03
2023-05-09T21:43:52.485Z,98040.63
2023-05-09T21:46:19.126Z,98031.59
2023-05-09T21:48:45.799Z,98033.13
2023-05-09T21:51:12.395Z,98028.66
2023-05-09T21:53:38.954Z,98031.59
2023-05-09T21:56:05.939Z,98038.59
2023-05-09T21:58:32.538Z,98023.94
2023-05-09T22:00:59.089Z,98027.13
2023-05-09T22:03:25.897Z,98025.47
2023-05-09T22:05:52.524Z,98025.47
2023-05-09T22:08:19.164Z,98023.94
2023-05-09T22:10:45.748Z,98023.19
2023-05-09T22:13:15.009Z,98026.22
2023-05-09T22:15:42.221Z,98016.56
2023-05-09T22:18:08.983Z,98022.72
2023-05-09T22:20:35.744Z,98013.91
2023-05-09T22:23:02.356Z,98021.91
2023-05-09T22:25:31.470Z,98017.59
2023-05-09T22:27:58.180Z,98015.75
2023-05-09T22:30:25.177Z,98012.78
2023-05-09T22:32:51.822Z,98002.06
2023-05-09T22:35:18.532Z,98007.09
2023-05-09T22:37:45.098Z,98002.44
2023-05-09T22:40:11.987Z,98009.56
2023-05-09T22:42:38.574Z,98000.59
2023-05-09T22:45:05.905Z,98008.09
2023-05-09T22:47:33.713Z,98001.91
2023-05-09T22:50:00.352Z,97995.66
2023-05-09T22:52:28.015Z,98007.59
2023-05-09T22:54:54.608Z,98006.56
2023-05-09T22:57:23.523Z,97998.81
2023-05-09T22:59:50.987Z,97996.75
2023-05-09T23:02:17.637Z,98000.47
2023-05-09T23:04:44.253Z,98000.59
2023-05-09T23:07:10.869Z,97996.16
2023-05-09T23:09:37.437Z,97993.41
2023-05-09T23:12:04.854Z,97994.44
2023-05-09T23:14:31.430Z,97994.50
2023-05-09T23:16:58.065Z,97990.94
2023-05-09T23:19:24.669Z,97988.75
2023-05-09T23:21:51.297Z,97997.06
2023-05-09T23:24:17.970Z,98002.44
2023-05-09T23:26:44.942Z,98002.66
2023-05-09T23:29:11.606Z,98006.69
2023-05-09T23:31:38.409Z,98005.03
2023-05-09T23:34:05.053Z,98000.59
2023-05-09T23:36:32.705Z,98008.19
2023-05-09T23:38:59.263Z,98000.28
2023-05-09T23:41:25.877Z,98005.69
2023-05-09T23:43:52.562Z,98004.03
2023-05-09T23:46:19.320Z,98003.22
2023-05-09T23:48:45.972Z,98001.28
2023-05-09T23:51:12.942Z,97996.16
2023-05-09T23:53:39.507Z,97991.03
2023-05-09T23:56:06.937Z,97994.50
2023-05-09T23:58:33.599Z,97993.56
